sensor_id;sensor_type;location;lat;lon;timestamp;P1;durP1;ratioP1;P2;durP2;ratioP2
4389;SDS011;2209;48.982;8.406;2022-12-20T00:02:17;42.03;;;28.80;;
4389;SDS011;2209;48.982;8.406;2022-12-20T00:04:39;35.30;;;27.33;;
4389;SDS011;2209;48.982;8.406;2022-12-20T00:07:01;41.57;;;28.57;;
4389;SDS011;2209;48.982;8.406;2022-12-20T00:09:23;40.03;;;28.77;;
4389;SDS011;2209;48.982;8.406;2022-12-20T00:11:47;36.90;;;27.07;;
4389;SDS011;2209;48.982;8.406;2022-12-20T00:14:09;39.60;;;26.43;;
4389;SDS011;2209;48.982;8.406;2022-12-20T00:16:31;35.50;;;25.97;;
4389;SDS011;2209;48.982;8.406;2022-12-20T00:18:55;36.10;;;26.07;;
4389;SDS011;2209;48.982;8.406;2022-12-20T00:21:18;42.07;;;27.30;;
4389;SDS011;2209;48.982;8.406;2022-12-20T00:23:40;35.70;;;24.20;;
4389;SDS011;2209;48.982;8.406;2022-12-20T00:26:02;33.57;;;25.00;;
4389;SDS011;2209;48.982;8.406;2022-12-20T00:28:28;31.87;;;24.97;;
4389;SDS011;2209;48.982;8.406;2022-12-20T00:30:52;33.67;;;25.50;;
4389;SDS011;2209;48.982;8.406;2022-12-20T00:33:14;37.93;;;26.90;;
4389;SDS011;2209;48.982;8.406;2022-12-20T00:35:40;38.70;;;27.30;;
4389;SDS011;2209;48.982;8.406;2022-12-20T00:38:02;37.40;;;27.80;;
4389;SDS011;2209;48.982;8.406;2022-12-20T00:40:24;42.00;;;28.30;;
4389;SDS011;2209;48.982;8.406;2022-12-20T00:42:46;42.43;;;26.60;;
4389;SDS011;2209;48.982;8.406;2022-12-20T00:45:10;35.20;;;25.93;;
4389;SDS011;2209;48.982;8.406;2022-12-20T00:47:32;36.90;;;26.63;;
4389;SDS011;2209;48.982;8.406;2022-12-20T00:49:54;37.80;;;26.80;;
4389;SDS011;2209;48.982;8.406;2022-12-20T00:52:16;37.37;;;27.43;;
4389;SDS011;2209;48.982;8.406;2022-12-20T00:54:38;35.03;;;26.60;;
4389;SDS011;2209;48.982;8.406;2022-12-20T00:57:00;36.13;;;26.30;;
4389;SDS011;2209;48.982;8.406;2022-12-20T00:59:22;38.90;;;29.07;;
4389;SDS011;2209;48.982;8.406;2022-12-20T01:01:46;42.93;;;27.43;;
4389;SDS011;2209;48.982;8.406;2022-12-20T01:04:08;42.73;;;28.70;;
4389;SDS011;2209;48.982;8.406;2022-12-20T01:06:30;39.13;;;28.10;;
4389;SDS011;2209;48.982;8.406;2022-12-20T01:08:53;40.03;;;28.80;;
4389;SDS011;2209;48.982;8.406;2022-12-20T01:11:17;45.07;;;29.03;;
4389;SDS011;2209;48.982;8.406;2022-12-20T01:13:41;38.07;;;27.77;;
4389;SDS011;2209;48.982;8.406;2022-12-20T01:16:04;45.90;;;29.13;;
4389;SDS011;2209;48.982;8.406;2022-12-20T01:18:28;35.87;;;27.23;;
4389;SDS011;2209;48.982;8.406;2022-12-20T01:20:59;36.13;;;26.90;;
4389;SDS011;2209;48.982;8.406;2022-12-20T01:23:21;45.20;;;27.90;;
4389;SDS011;2209;48.982;8.406;2022-12-20T01:25:44;41.67;;;28.40;;
4389;SDS011;2209;48.982;8.406;2022-12-20T01:28:06;41.83;;;29.20;;
4389;SDS011;2209;48.982;8.406;2022-12-20T01:30:29;36.57;;;26.23;;
4389;SDS011;2209;48.982;8.406;2022-12-20T01:32:51;35.40;;;26.37;;
4389;SDS011;2209;48.982;8.406;2022-12-20T01:35:14;49.00;;;27.60;;
4389;SDS011;2209;48.982;8.406;2022-12-20T01:37:37;35.20;;;26.40;;
4389;SDS011;2209;48.982;8.406;2022-12-20T01:39:59;40.20;;;27.70;;
4389;SDS011;2209;48.982;8.406;2022-12-20T01:42:21;34.30;;;26.97;;
4389;SDS011;2209;48.982;8.406;2022-12-20T01:44:56;37.97;;;26.90;;
4389;SDS011;2209;48.982;8.406;2022-12-20T01:47:19;41.43;;;28.20;;
4389;SDS011;2209;48.982;8.406;2022-12-20T01:49:43;39.87;;;27.20;;
4389;SDS011;2209;48.982;8.406;2022-12-20T01:52:10;36.50;;;28.67;;
4389;SDS011;2209;48.982;8.406;2022-12-20T01:54:35;37.93;;;27.90;;
4389;SDS011;2209;48.982;8.406;2022-12-20T01:57:01;36.90;;;28.37;;
4389;SDS011;2209;48.982;8.406;2022-12-20T01:59:27;34.30;;;27.90;;
4389;SDS011;2209;48.982;8.406;2022-12-20T02:01:49;36.10;;;26.33;;
4389;SDS011;2209;48.982;8.406;2022-12-20T02:04:12;33.60;;;23.57;;
4389;SDS011;2209;48.982;8.406;2022-12-20T02:06:34;36.60;;;27.23;;
4389;SDS011;2209;48.982;8.406;2022-12-20T02:08:58;34.00;;;26.20;;
4389;SDS011;2209;48.982;8.406;2022-12-20T02:11:26;34.80;;;25.87;;
4389;SDS011;2209;48.982;8.406;2022-12-20T02:14:01;31.47;;;25.33;;
4389;SDS011;2209;48.982;8.406;2022-12-20T02:16:37;34.23;;;26.30;;
4389;SDS011;2209;48.982;8.406;2022-12-20T02:19:13;37.40;;;27.63;;
4389;SDS011;2209;48.982;8.406;2022-12-20T02:21:45;32.57;;;24.57;;
4389;SDS011;2209;48.982;8.406;2022-12-20T02:24:25;32.97;;;25.40;;
4389;SDS011;2209;48.982;8.406;2022-12-20T02:27:21;29.90;;;24.17;;
4389;SDS011;2209;48.982;8.406;2022-12-20T02:30:10;39.27;;;26.17;;
4389;SDS011;2209;48.982;8.406;2022-12-20T02:32:36;36.07;;;26.20;;
4389;SDS011;2209;48.982;8.406;2022-12-20T02:35:03;42.73;;;28.50;;
4389;SDS011;2209;48.982;8.406;2022-12-20T02:37:26;33.53;;;25.90;;
4389;SDS011;2209;48.982;8.406;2022-12-20T02:39:49;33.53;;;24.90;;
4389;SDS011;2209;48.982;8.406;2022-12-20T02:42:12;35.33;;;25.30;;
4389;SDS011;2209;48.982;8.406;2022-12-20T02:44:37;40.00;;;26.63;;
4389;SDS011;2209;48.982;8.406;2022-12-20T02:47:22;35.07;;;25.43;;
4389;SDS011;2209;48.982;8.406;2022-12-20T02:49:50;31.17;;;24.73;;
4389;SDS011;2209;48.982;8.406;2022-12-20T02:52:12;36.33;;;26.07;;
4389;SDS011;2209;48.982;8.406;2022-12-20T02:54:36;33.43;;;24.93;;
4389;SDS011;2209;48.982;8.406;2022-12-20T02:56:59;31.00;;;22.77;;
4389;SDS011;2209;48.982;8.406;2022-12-20T02:59:27;30.73;;;22.87;;
4389;SDS011;2209;48.982;8.406;2022-12-20T03:01:55;32.57;;;24.13;;
4389;SDS011;2209;48.982;8.406;2022-12-20T03:04:19;34.47;;;23.97;;
4389;SDS011;2209;48.982;8.406;2022-12-20T03:06:54;35.03;;;24.57;;
4389;SDS011;2209;48.982;8.406;2022-12-20T03:09:17;34.47;;;23.73;;
4389;SDS011;2209;48.982;8.406;2022-12-20T03:11:39;30.93;;;23.57;;
4389;SDS011;2209;48.982;8.406;2022-12-20T03:14:01;36.60;;;25.87;;
4389;SDS011;2209;48.982;8.406;2022-12-20T03:16:23;35.83;;;27.17;;
4389;SDS011;2209;48.982;8.406;2022-12-20T03:18:45;40.53;;;27.97;;
4389;SDS011;2209;48.982;8.406;2022-12-20T03:21:09;39.23;;;28.27;;
4389;SDS011;2209;48.982;8.406;2022-12-20T03:23:31;38.10;;;29.37;;
4389;SDS011;2209;48.982;8.406;2022-12-20T03:25:54;46.43;;;31.40;;
4389;SDS011;2209;48.982;8.406;2022-12-20T03:28:16;41.43;;;27.93;;
4389;SDS011;2209;48.982;8.406;2022-12-20T03:30:38;40.10;;;29.20;;
4389;SDS011;2209;48.982;8.406;2022-12-20T03:33:00;41.03;;;28.83;;
4389;SDS011;2209;48.982;8.406;2022-12-20T03:35:22;36.40;;;27.20;;
4389;SDS011;2209;48.982;8.406;2022-12-20T03:37:45;42.60;;;27.03;;
4389;SDS011;2209;48.982;8.406;2022-12-20T03:40:08;36.60;;;28.20;;
4389;SDS011;2209;48.982;8.406;2022-12-20T03:42:31;35.60;;;27.60;;
4389;SDS011;2209;48.982;8.406;2022-12-20T03:44:53;38.70;;;27.80;;
4389;SDS011;2209;48.982;8.406;2022-12-20T03:47:15;37.80;;;29.17;;
4389;SDS011;2209;48.982;8.406;2022-12-20T03:49:37;41.03;;;28.00;;
4389;SDS011;2209;48.982;8.406;2022-12-20T03:51:59;40.87;;;27.83;;
4389;SDS011;2209;48.982;8.406;2022-12-20T03:54:22;39.27;;;27.93;;
4389;SDS011;2209;48.982;8.406;2022-12-20T03:56:44;40.30;;;28.87;;
4389;SDS011;2209;48.982;8.406;2022-12-20T03:59:06;37.60;;;27.27;;
4389;SDS011;2209;48.982;8.406;2022-12-20T04:01:29;39.17;;;28.37;;
4389;SDS011;2209;48.982;8.406;2022-12-20T04:03:55;39.00;;;27.53;;
4389;SDS011;2209;48.982;8.406;2022-12-20T04:06:18;39.03;;;27.70;;
4389;SDS011;2209;48.982;8.406;2022-12-20T04:08:40;33.30;;;25.53;;
4389;SDS011;2209;48.982;8.406;2022-12-20T04:11:03;38.00;;;27.43;;
4389;SDS011;2209;48.982;8.406;2022-12-20T04:13:37;34.40;;;26.40;;
4389;SDS011;2209;48.982;8.406;2022-12-20T04:15:59;32.00;;;25.50;;
4389;SDS011;2209;48.982;8.406;2022-12-20T04:18:21;33.23;;;24.63;;
4389;SDS011;2209;48.982;8.406;2022-12-20T04:20:44;39.23;;;25.30;;
4389;SDS011;2209;48.982;8.406;2022-12-20T04:23:06;35.67;;;26.17;;
4389;SDS011;2209;48.982;8.406;2022-12-20T04:25:28;36.03;;;24.20;;
4389;SDS011;2209;48.982;8.406;2022-12-20T04:27:51;35.90;;;24.77;;
4389;SDS011;2209;48.982;8.406;2022-12-20T04:30:13;32.07;;;25.60;;
4389;SDS011;2209;48.982;8.406;2022-12-20T04:32:35;31.90;;;24.87;;
4389;SDS011;2209;48.982;8.406;2022-12-20T04:34:58;30.97;;;25.03;;
4389;SDS011;2209;48.982;8.406;2022-12-20T04:37:20;35.53;;;23.80;;
4389;SDS011;2209;48.982;8.406;2022-12-20T04:39:42;31.13;;;23.10;;
4389;SDS011;2209;48.982;8.406;2022-12-20T04:42:04;31.83;;;24.20;;
4389;SDS011;2209;48.982;8.406;2022-12-20T04:44:27;28.73;;;24.20;;
4389;SDS011;2209;48.982;8.406;2022-12-20T04:46:49;42.00;;;28.60;;
4389;SDS011;2209;48.982;8.406;2022-12-20T04:49:11;41.20;;;31.10;;
4389;SDS011;2209;48.982;8.406;2022-12-20T04:51:33;39.97;;;28.90;;
4389;SDS011;2209;48.982;8.406;2022-12-20T04:53:55;39.53;;;26.80;;
4389;SDS011;2209;48.982;8.406;2022-12-20T04:56:18;33.27;;;24.87;;
4389;SDS011;2209;48.982;8.406;2022-12-20T04:58:41;33.07;;;24.07;;
4389;SDS011;2209;48.982;8.406;2022-12-20T05:01:05;33.57;;;24.43;;
4389;SDS011;2209;48.982;8.406;2022-12-20T05:03:27;33.00;;;24.50;;
4389;SDS011;2209;48.982;8.406;2022-12-20T05:05:49;31.47;;;24.33;;
4389;SDS011;2209;48.982;8.406;2022-12-20T05:08:12;31.67;;;22.93;;
4389;SDS011;2209;48.982;8.406;2022-12-20T05:10:34;35.07;;;24.13;;
4389;SDS011;2209;48.982;8.406;2022-12-20T05:12:56;32.37;;;24.80;;
4389;SDS011;2209;48.982;8.406;2022-12-20T05:15:18;30.87;;;22.70;;
4389;SDS011;2209;48.982;8.406;2022-12-20T05:17:41;34.60;;;24.33;;
4389;SDS011;2209;48.982;8.406;2022-12-20T05:20:05;39.00;;;24.67;;
4389;SDS011;2209;48.982;8.406;2022-12-20T05:22:28;32.40;;;24.00;;
4389;SDS011;2209;48.982;8.406;2022-12-20T05:25:08;32.33;;;23.50;;
4389;SDS011;2209;48.982;8.406;2022-12-20T05:27:48;33.60;;;24.00;;
4389;SDS011;2209;48.982;8.406;2022-12-20T05:30:10;31.17;;;23.17;;
4389;SDS011;2209;48.982;8.406;2022-12-20T05:32:33;31.63;;;23.73;;
4389;SDS011;2209;48.982;8.406;2022-12-20T05:34:56;30.93;;;22.63;;
4389;SDS011;2209;48.982;8.406;2022-12-20T05:37:18;31.50;;;22.70;;
4389;SDS011;2209;48.982;8.406;2022-12-20T05:39:40;29.13;;;23.50;;
4389;SDS011;2209;48.982;8.406;2022-12-20T05:42:02;31.17;;;24.30;;
4389;SDS011;2209;48.982;8.406;2022-12-20T05:44:24;29.50;;;22.23;;
4389;SDS011;2209;48.982;8.406;2022-12-20T05:46:46;31.70;;;23.50;;
4389;SDS011;2209;48.982;8.406;2022-12-20T05:49:08;29.70;;;23.20;;
4389;SDS011;2209;48.982;8.406;2022-12-20T05:51:32;31.67;;;23.00;;
4389;SDS011;2209;48.982;8.406;2022-12-20T05:53:54;43.30;;;23.90;;
4389;SDS011;2209;48.982;8.406;2022-12-20T05:56:18;31.03;;;24.10;;
4389;SDS011;2209;48.982;8.406;2022-12-20T05:58:40;29.30;;;21.90;;
4389;SDS011;2209;48.982;8.406;2022-12-20T06:01:03;30.77;;;22.90;;
4389;SDS011;2209;48.982;8.406;2022-12-20T06:03:26;29.00;;;22.27;;
4389;SDS011;2209;48.982;8.406;2022-12-20T06:05:48;34.57;;;25.00;;
4389;SDS011;2209;48.982;8.406;2022-12-20T06:08:11;31.43;;;22.70;;
4389;SDS011;2209;48.982;8.406;2022-12-20T06:10:35;28.23;;;22.70;;
4389;SDS011;2209;48.982;8.406;2022-12-20T06:12:57;33.37;;;22.60;;
4389;SDS011;2209;48.982;8.406;2022-12-20T06:15:19;34.73;;;22.50;;
4389;SDS011;2209;48.982;8.406;2022-12-20T06:17:41;28.80;;;23.23;;
4389;SDS011;2209;48.982;8.406;2022-12-20T06:20:04;30.73;;;23.60;;
4389;SDS011;2209;48.982;8.406;2022-12-20T06:22:27;36.73;;;21.90;;
4389;SDS011;2209;48.982;8.406;2022-12-20T06:24:50;34.60;;;23.37;;
4389;SDS011;2209;48.982;8.406;2022-12-20T06:27:12;35.43;;;22.73;;
4389;SDS011;2209;48.982;8.406;2022-12-20T06:29:34;28.90;;;21.77;;
4389;SDS011;2209;48.982;8.406;2022-12-20T06:31:57;29.20;;;22.67;;
4389;SDS011;2209;48.982;8.406;2022-12-20T06:34:19;36.13;;;23.60;;
4389;SDS011;2209;48.982;8.406;2022-12-20T06:36:41;30.23;;;21.53;;
4389;SDS011;2209;48.982;8.406;2022-12-20T06:39:03;30.93;;;22.37;;
4389;SDS011;2209;48.982;8.406;2022-12-20T06:41:28;28.03;;;20.50;;
4389;SDS011;2209;48.982;8.406;2022-12-20T06:43:50;31.07;;;22.00;;
4389;SDS011;2209;48.982;8.406;2022-12-20T06:46:12;32.07;;;21.97;;
4389;SDS011;2209;48.982;8.406;2022-12-20T06:48:34;27.10;;;22.30;;
4389;SDS011;2209;48.982;8.406;2022-12-20T06:50:56;33.97;;;23.00;;
4389;SDS011;2209;48.982;8.406;2022-12-20T06:53:18;25.00;;;21.13;;
4389;SDS011;2209;48.982;8.406;2022-12-20T06:55:40;27.03;;;20.50;;
4389;SDS011;2209;48.982;8.406;2022-12-20T06:58:04;20.00;;;17.50;;
4389;SDS011;2209;48.982;8.406;2022-12-20T07:00:26;24.40;;;18.30;;
4389;SDS011;2209;48.982;8.406;2022-12-20T07:02:48;25.63;;;19.60;;
4389;SDS011;2209;48.982;8.406;2022-12-20T07:05:10;27.77;;;19.80;;
4389;SDS011;2209;48.982;8.406;2022-12-20T07:07:32;24.57;;;20.50;;
4389;SDS011;2209;48.982;8.406;2022-12-20T07:09:54;23.60;;;18.90;;
4389;SDS011;2209;48.982;8.406;2022-12-20T07:12:16;23.27;;;19.50;;
4389;SDS011;2209;48.982;8.406;2022-12-20T07:14:40;26.97;;;20.80;;
4389;SDS011;2209;48.982;8.406;2022-12-20T07:17:02;25.17;;;20.23;;
4389;SDS011;2209;48.982;8.406;2022-12-20T07:19:24;26.03;;;20.17;;
4389;SDS011;2209;48.982;8.406;2022-12-20T07:21:46;26.53;;;17.83;;
4389;SDS011;2209;48.982;8.406;2022-12-20T07:24:09;30.30;;;19.00;;
4389;SDS011;2209;48.982;8.406;2022-12-20T07:26:31;25.73;;;20.10;;
4389;SDS011;2209;48.982;8.406;2022-12-20T07:28:53;28.40;;;19.30;;
4389;SDS011;2209;48.982;8.406;2022-12-20T07:31:17;29.77;;;20.60;;
4389;SDS011;2209;48.982;8.406;2022-12-20T07:33:39;27.03;;;21.03;;
4389;SDS011;2209;48.982;8.406;2022-12-20T07:36:01;29.40;;;22.37;;
4389;SDS011;2209;48.982;8.406;2022-12-20T07:38:23;28.97;;;22.20;;
4389;SDS011;2209;48.982;8.406;2022-12-20T07:40:45;34.00;;;27.93;;
4389;SDS011;2209;48.982;8.406;2022-12-20T07:43:08;37.80;;;25.73;;
4389;SDS011;2209;48.982;8.406;2022-12-20T07:45:30;29.57;;;22.53;;
4389;SDS011;2209;48.982;8.406;2022-12-20T07:47:54;28.00;;;21.37;;
4389;SDS011;2209;48.982;8.406;2022-12-20T07:50:17;28.10;;;21.13;;
4389;SDS011;2209;48.982;8.406;2022-12-20T07:52:39;25.47;;;21.37;;
4389;SDS011;2209;48.982;8.406;2022-12-20T07:55:06;24.63;;;21.00;;
4389;SDS011;2209;48.982;8.406;2022-12-20T07:57:30;24.97;;;18.50;;
4389;SDS011;2209;48.982;8.406;2022-12-20T07:59:56;25.27;;;18.60;;
4389;SDS011;2209;48.982;8.406;2022-12-20T08:02:21;31.97;;;19.40;;
4389;SDS011;2209;48.982;8.406;2022-12-20T08:04:50;28.17;;;20.87;;
4389;SDS011;2209;48.982;8.406;2022-12-20T08:07:14;25.27;;;18.70;;
4389;SDS011;2209;48.982;8.406;2022-12-20T08:09:37;24.80;;;19.67;;
4389;SDS011;2209;48.982;8.406;2022-12-20T08:12:02;28.20;;;20.70;;
4389;SDS011;2209;48.982;8.406;2022-12-20T08:14:25;24.47;;;19.60;;
4389;SDS011;2209;48.982;8.406;2022-12-20T08:16:47;24.93;;;19.10;;
4389;SDS011;2209;48.982;8.406;2022-12-20T08:19:10;25.77;;;20.13;;
4389;SDS011;2209;48.982;8.406;2022-12-20T08:21:34;25.57;;;19.83;;
4389;SDS011;2209;48.982;8.406;2022-12-20T08:23:56;22.90;;;18.27;;
4389;SDS011;2209;48.982;8.406;2022-12-20T08:26:18;17.67;;;13.73;;
4389;SDS011;2209;48.982;8.406;2022-12-20T08:28:40;17.33;;;13.90;;
4389;SDS011;2209;48.982;8.406;2022-12-20T08:31:03;17.90;;;14.97;;
4389;SDS011;2209;48.982;8.406;2022-12-20T08:33:26;15.83;;;13.97;;
4389;SDS011;2209;48.982;8.406;2022-12-20T08:35:55;16.70;;;13.43;;
4389;SDS011;2209;48.982;8.406;2022-12-20T08:38:19;24.10;;;18.17;;
4389;SDS011;2209;48.982;8.406;2022-12-20T08:40:41;18.60;;;13.50;;
4389;SDS011;2209;48.982;8.406;2022-12-20T08:43:03;14.73;;;13.10;;
4389;SDS011;2209;48.982;8.406;2022-12-20T08:45:25;24.90;;;13.07;;
4389;SDS011;2209;48.982;8.406;2022-12-20T08:47:47;15.43;;;13.67;;
4389;SDS011;2209;48.982;8.406;2022-12-20T08:50:09;21.27;;;16.70;;
4389;SDS011;2209;48.982;8.406;2022-12-20T08:52:33;23.17;;;17.90;;
4389;SDS011;2209;48.982;8.406;2022-12-20T08:54:56;27.13;;;19.57;;
4389;SDS011;2209;48.982;8.406;2022-12-20T08:57:18;24.73;;;19.07;;
4389;SDS011;2209;48.982;8.406;2022-12-20T08:59:41;27.67;;;19.67;;
4389;SDS011;2209;48.982;8.406;2022-12-20T09:02:03;24.10;;;19.90;;
4389;SDS011;2209;48.982;8.406;2022-12-20T09:04:25;26.33;;;17.77;;
4389;SDS011;2209;48.982;8.406;2022-12-20T09:06:47;29.37;;;20.00;;
4389;SDS011;2209;48.982;8.406;2022-12-20T09:09:09;20.97;;;15.30;;
4389;SDS011;2209;48.982;8.406;2022-12-20T09:11:32;20.33;;;16.10;;
4389;SDS011;2209;48.982;8.406;2022-12-20T09:13:56;16.80;;;14.20;;
4389;SDS011;2209;48.982;8.406;2022-12-20T09:16:20;15.50;;;13.10;;
4389;SDS011;2209;48.982;8.406;2022-12-20T09:18:43;16.13;;;12.60;;
4389;SDS011;2209;48.982;8.406;2022-12-20T09:21:09;14.60;;;11.93;;
4389;SDS011;2209;48.982;8.406;2022-12-20T09:23:33;19.40;;;12.50;;
4389;SDS011;2209;48.982;8.406;2022-12-20T09:26:00;14.50;;;12.40;;
4389;SDS011;2209;48.982;8.406;2022-12-20T09:28:24;17.70;;;13.47;;
4389;SDS011;2209;48.982;8.406;2022-12-20T09:30:46;17.30;;;13.90;;
4389;SDS011;2209;48.982;8.406;2022-12-20T09:33:08;13.20;;;10.67;;
4389;SDS011;2209;48.982;8.406;2022-12-20T09:35:30;17.30;;;14.47;;
4389;SDS011;2209;48.982;8.406;2022-12-20T09:41:15;18.33;;;13.47;;
4389;SDS011;2209;48.982;8.406;2022-12-20T09:43:47;16.70;;;13.03;;
4389;SDS011;2209;48.982;8.406;2022-12-20T09:46:10;16.20;;;12.93;;
4389;SDS011;2209;48.982;8.406;2022-12-20T09:48:37;20.83;;;13.33;;
4389;SDS011;2209;48.982;8.406;2022-12-20T09:51:06;14.93;;;13.33;;
4389;SDS011;2209;48.982;8.406;2022-12-20T09:53:41;19.63;;;13.80;;
4389;SDS011;2209;48.982;8.406;2022-12-20T09:56:18;18.10;;;14.20;;
4389;SDS011;2209;48.982;8.406;2022-12-20T09:58:57;19.60;;;13.97;;
4389;SDS011;2209;48.982;8.406;2022-12-20T10:01:22;15.67;;;13.93;;
4389;SDS011;2209;48.982;8.406;2022-12-20T10:03:46;19.23;;;13.87;;
4389;SDS011;2209;48.982;8.406;2022-12-20T10:06:10;20.90;;;14.40;;
4389;SDS011;2209;48.982;8.406;2022-12-20T10:08:43;20.20;;;14.40;;
4389;SDS011;2209;48.982;8.406;2022-12-20T10:11:13;19.70;;;15.17;;
4389;SDS011;2209;48.982;8.406;2022-12-20T10:13:52;20.33;;;15.97;;
4389;SDS011;2209;48.982;8.406;2022-12-20T10:16:28;20.20;;;15.20;;
4389;SDS011;2209;48.982;8.406;2022-12-20T10:18:59;22.07;;;14.60;;
4389;SDS011;2209;48.982;8.406;2022-12-20T10:21:34;20.27;;;15.53;;
4389;SDS011;2209;48.982;8.406;2022-12-20T10:24:06;19.73;;;15.33;;
4389;SDS011;2209;48.982;8.406;2022-12-20T10:26:33;18.03;;;14.90;;
4389;SDS011;2209;48.982;8.406;2022-12-20T10:28:55;19.00;;;15.60;;
4389;SDS011;2209;48.982;8.406;2022-12-20T10:34:37;21.87;;;15.67;;
4389;SDS011;2209;48.982;8.406;2022-12-20T10:39:41;18.20;;;14.17;;
4389;SDS011;2209;48.982;8.406;2022-12-20T10:42:09;22.37;;;14.30;;
4389;SDS011;2209;48.982;8.406;2022-12-20T10:44:46;20.70;;;15.70;;
4389;SDS011;2209;48.982;8.406;2022-12-20T10:47:19;20.00;;;14.97;;
4389;SDS011;2209;48.982;8.406;2022-12-20T10:50:11;22.20;;;15.20;;
4389;SDS011;2209;48.982;8.406;2022-12-20T10:52:36;23.57;;;15.00;;
4389;SDS011;2209;48.982;8.406;2022-12-20T10:54:59;22.90;;;15.07;;
4389;SDS011;2209;48.982;8.406;2022-12-20T10:57:24;19.73;;;15.20;;
4389;SDS011;2209;48.982;8.406;2022-12-20T10:59:52;20.87;;;15.10;;
4389;SDS011;2209;48.982;8.406;2022-12-20T11:02:26;21.90;;;15.87;;
4389;SDS011;2209;48.982;8.406;2022-12-20T11:04:55;22.10;;;16.10;;
4389;SDS011;2209;48.982;8.406;2022-12-20T11:07:23;20.80;;;16.60;;
4389;SDS011;2209;48.982;8.406;2022-12-20T11:09:50;21.67;;;16.33;;
4389;SDS011;2209;48.982;8.406;2022-12-20T11:12:20;20.30;;;16.30;;
4389;SDS011;2209;48.982;8.406;2022-12-20T11:14:43;21.00;;;15.57;;
4389;SDS011;2209;48.982;8.406;2022-12-20T11:17:14;20.77;;;16.10;;
4389;SDS011;2209;48.982;8.406;2022-12-20T11:19:52;18.93;;;15.27;;
4389;SDS011;2209;48.982;8.406;2022-12-20T11:22:29;21.20;;;16.53;;
4389;SDS011;2209;48.982;8.406;2022-12-20T11:24:58;24.80;;;16.90;;
4389;SDS011;2209;48.982;8.406;2022-12-20T11:27:32;20.80;;;15.30;;
4389;SDS011;2209;48.982;8.406;2022-12-20T11:30:06;18.23;;;16.33;;
4389;SDS011;2209;48.982;8.406;2022-12-20T11:32:37;23.33;;;16.20;;
4389;SDS011;2209;48.982;8.406;2022-12-20T11:35:13;22.97;;;16.90;;
4389;SDS011;2209;48.982;8.406;2022-12-20T11:37:43;26.63;;;16.97;;
4389;SDS011;2209;48.982;8.406;2022-12-20T11:40:15;22.70;;;16.37;;
4389;SDS011;2209;48.982;8.406;2022-12-20T11:42:51;21.60;;;15.00;;
4389;SDS011;2209;48.982;8.406;2022-12-20T11:45:22;19.40;;;15.63;;
4389;SDS011;2209;48.982;8.406;2022-12-20T11:47:57;25.93;;;16.40;;
4389;SDS011;2209;48.982;8.406;2022-12-20T11:50:39;22.17;;;17.27;;
4389;SDS011;2209;48.982;8.406;2022-12-20T11:53:12;21.07;;;14.87;;
4389;SDS011;2209;48.982;8.406;2022-12-20T11:55:41;19.73;;;15.00;;
4389;SDS011;2209;48.982;8.406;2022-12-20T11:58:09;18.17;;;15.40;;
4389;SDS011;2209;48.982;8.406;2022-12-20T12:00:36;20.53;;;15.43;;
4389;SDS011;2209;48.982;8.406;2022-12-20T12:03:02;21.37;;;16.20;;
4389;SDS011;2209;48.982;8.406;2022-12-20T12:05:33;22.10;;;17.60;;
4389;SDS011;2209;48.982;8.406;2022-12-20T12:08:02;21.87;;;17.80;;
4389;SDS011;2209;48.982;8.406;2022-12-20T12:10:30;21.40;;;17.23;;
4389;SDS011;2209;48.982;8.406;2022-12-20T12:12:56;21.40;;;17.20;;
4389;SDS011;2209;48.982;8.406;2022-12-20T12:15:26;25.27;;;16.90;;
4389;SDS011;2209;48.982;8.406;2022-12-20T12:17:53;21.47;;;17.00;;
4389;SDS011;2209;48.982;8.406;2022-12-20T12:20:22;23.03;;;16.83;;
4389;SDS011;2209;48.982;8.406;2022-12-20T12:22:52;22.30;;;16.73;;
4389;SDS011;2209;48.982;8.406;2022-12-20T12:25:18;25.27;;;17.50;;
4389;SDS011;2209;48.982;8.406;2022-12-20T12:27:42;25.03;;;16.40;;
4389;SDS011;2209;48.982;8.406;2022-12-20T12:30:05;21.70;;;17.00;;
4389;SDS011;2209;48.982;8.406;2022-12-20T12:32:33;25.33;;;17.50;;
4389;SDS011;2209;48.982;8.406;2022-12-20T12:35:03;18.80;;;15.20;;
4389;SDS011;2209;48.982;8.406;2022-12-20T12:37:46;23.97;;;17.87;;
4389;SDS011;2209;48.982;8.406;2022-12-20T12:40:28;25.23;;;17.20;;
4389;SDS011;2209;48.982;8.406;2022-12-20T12:43:12;21.67;;;16.80;;
4389;SDS011;2209;48.982;8.406;2022-12-20T12:46:07;25.20;;;16.37;;
4389;SDS011;2209;48.982;8.406;2022-12-20T12:48:33;24.00;;;16.70;;
4389;SDS011;2209;48.982;8.406;2022-12-20T12:51:00;19.87;;;16.20;;
4389;SDS011;2209;48.982;8.406;2022-12-20T12:53:25;21.93;;;15.70;;
4389;SDS011;2209;48.982;8.406;2022-12-20T12:55:54;17.63;;;15.53;;
4389;SDS011;2209;48.982;8.406;2022-12-20T13:01:03;19.63;;;16.67;;
4389;SDS011;2209;48.982;8.406;2022-12-20T13:03:35;20.67;;;16.00;;
4389;SDS011;2209;48.982;8.406;2022-12-20T13:09:09;22.40;;;15.97;;
4389;SDS011;2209;48.982;8.406;2022-12-20T13:11:38;22.30;;;16.80;;
4389;SDS011;2209;48.982;8.406;2022-12-20T13:14:23;24.40;;;16.87;;
4389;SDS011;2209;48.982;8.406;2022-12-20T13:20:14;23.33;;;16.20;;
4389;SDS011;2209;48.982;8.406;2022-12-20T13:22:39;21.83;;;17.20;;
4389;SDS011;2209;48.982;8.406;2022-12-20T13:25:26;24.77;;;16.17;;
4389;SDS011;2209;48.982;8.406;2022-12-20T13:33:54;19.53;;;15.20;;
4389;SDS011;2209;48.982;8.406;2022-12-20T13:36:34;19.63;;;16.13;;
4389;SDS011;2209;48.982;8.406;2022-12-20T13:38:59;24.73;;;16.57;;
4389;SDS011;2209;48.982;8.406;2022-12-20T13:41:27;22.53;;;17.50;;
4389;SDS011;2209;48.982;8.406;2022-12-20T13:43:56;20.30;;;15.20;;
4389;SDS011;2209;48.982;8.406;2022-12-20T13:46:23;21.60;;;16.80;;
4389;SDS011;2209;48.982;8.406;2022-12-20T13:48:51;20.70;;;15.53;;
4389;SDS011;2209;48.982;8.406;2022-12-20T13:51:17;20.47;;;15.73;;
4389;SDS011;2209;48.982;8.406;2022-12-20T13:53:40;29.87;;;15.80;;
4389;SDS011;2209;48.982;8.406;2022-12-20T13:56:27;18.30;;;14.83;;
4389;SDS011;2209;48.982;8.406;2022-12-20T13:58:57;18.40;;;15.07;;
4389;SDS011;2209;48.982;8.406;2022-12-20T14:01:24;19.53;;;15.53;;
4389;SDS011;2209;48.982;8.406;2022-12-20T14:03:47;20.43;;;14.90;;
4389;SDS011;2209;48.982;8.406;2022-12-20T14:06:13;17.83;;;15.30;;
4389;SDS011;2209;48.982;8.406;2022-12-20T14:08:37;18.70;;;14.50;;
4389;SDS011;2209;48.982;8.406;2022-12-20T14:11:08;17.60;;;13.30;;
4389;SDS011;2209;48.982;8.406;2022-12-20T14:13:34;24.03;;;16.43;;
4389;SDS011;2209;48.982;8.406;2022-12-20T14:15:56;17.77;;;14.40;;
4389;SDS011;2209;48.982;8.406;2022-12-20T14:18:29;18.13;;;14.63;;
4389;SDS011;2209;48.982;8.406;2022-12-20T14:20:52;21.10;;;14.83;;
4389;SDS011;2209;48.982;8.406;2022-12-20T14:23:18;17.73;;;14.23;;
4389;SDS011;2209;48.982;8.406;2022-12-20T14:25:44;18.33;;;12.30;;
4389;SDS011;2209;48.982;8.406;2022-12-20T14:28:14;18.87;;;13.47;;
4389;SDS011;2209;48.982;8.406;2022-12-20T14:30:40;22.40;;;14.50;;
4389;SDS011;2209;48.982;8.406;2022-12-20T14:33:04;18.00;;;14.17;;
4389;SDS011;2209;48.982;8.406;2022-12-20T14:35:26;21.30;;;14.77;;
4389;SDS011;2209;48.982;8.406;2022-12-20T14:37:54;22.40;;;16.53;;
4389;SDS011;2209;48.982;8.406;2022-12-20T14:40:19;25.73;;;17.13;;
4389;SDS011;2209;48.982;8.406;2022-12-20T14:42:42;27.53;;;17.20;;
4389;SDS011;2209;48.982;8.406;2022-12-20T14:45:14;24.07;;;16.17;;
4389;SDS011;2209;48.982;8.406;2022-12-20T14:47:40;19.43;;;15.60;;
4389;SDS011;2209;48.982;8.406;2022-12-20T14:50:16;22.77;;;15.87;;
4389;SDS011;2209;48.982;8.406;2022-12-20T14:52:40;20.03;;;15.40;;
4389;SDS011;2209;48.982;8.406;2022-12-20T14:55:05;21.87;;;15.03;;
4389;SDS011;2209;48.982;8.406;2022-12-20T14:57:37;21.37;;;15.30;;
4389;SDS011;2209;48.982;8.406;2022-12-20T15:00:04;17.83;;;14.53;;
4389;SDS011;2209;48.982;8.406;2022-12-20T15:02:34;19.40;;;15.80;;
4389;SDS011;2209;48.982;8.406;2022-12-20T15:04:59;15.07;;;13.47;;